createdAt,value
2022-12-14T00:01:54.489Z,97.54
2022-12-14T00:04:22.444Z,95.31
2022-12-14T00:06:50.354Z,94.20
2022-12-14T00:09:18.267Z,94.12
2022-12-14T00:11:46.175Z,95.55
2022-12-14T00:14:14.121Z,96.82
2022-12-14T00:16:43.427Z,97.33
2022-12-14T00:19:12.571Z,96.52
2022-12-14T00:21:40.524Z,95.13
2022-12-14T00:24:08.773Z,94.50
2022-12-14T00:26:36.686Z,94.44
2022-12-14T00:29:05.120Z,94.31
2022-12-14T00:31:33.145Z,96.30
2022-12-14T00:34:02.505Z,95.27
2022-12-14T00:36:31.639Z,95.87
2022-12-14T00:39:00.280Z,94.44
2022-12-14T00:41:28.246Z,94.20
2022-12-14T00:43:56.282Z,94.07
2022-12-14T00:46:24.370Z,94.06
2022-12-14T00:48:52.309Z,94.24
2022-12-14T00:51:21.618Z,94.82
2022-12-14T00:53:49.828Z,93.09
2022-12-14T00:56:17.769Z,92.06
2022-12-14T00:58:51.624Z,92.65
2022-12-14T01:01:19.651Z,92.31
2022-12-14T01:03:47.727Z,92.84
2022-12-14T01:06:17.310Z,93.77
2022-12-14T01:08:47.107Z,93.97
2022-12-14T01:11:15.483Z,93.07
2022-12-14T01:13:44.020Z,93.40
2022-12-14T01:16:14.359Z,94.86
2022-12-14T01:18:43.881Z,96.69
2022-12-14T01:21:13.863Z,96.53
2022-12-14T01:23:42.498Z,95.96
2022-12-14T01:26:12.065Z,96.17
2022-12-14T01:28:40.009Z,97.09
2022-12-14T01:31:10.430Z,96.11
2022-12-14T01:33:38.982Z,96.46
2022-12-14T01:36:08.516Z,97.62
2022-12-14T01:38:36.752Z,96.59
2022-12-14T01:41:05.605Z,98.59
2022-12-14T01:43:53.461Z,98.05
2022-12-14T01:46:27.500Z,96.32
2022-12-14T01:49:00.612Z,95.82
2022-12-14T01:51:30.186Z,95.74
2022-12-14T01:54:00.104Z,94.83
2022-12-14T01:56:28.394Z,94.62
2022-12-14T01:59:00.757Z,93.94
2022-12-14T02:01:28.769Z,93.86
2022-12-14T02:03:56.887Z,93.37
2022-12-14T02:06:30.104Z,93.75
2022-12-14T02:08:58.778Z,94.43
2022-12-14T02:11:33.829Z,93.71
2022-12-14T02:14:03.128Z,93.20
2022-12-14T02:16:32.720Z,93.80
2022-12-14T02:19:00.698Z,93.68
2022-12-14T02:21:45.112Z,93.79
2022-12-14T02:24:57.570Z,94.09
2022-12-14T02:27:46.630Z,94.61
2022-12-14T02:30:19.560Z,95.27
2022-12-14T02:33:09.875Z,95.92
2022-12-14T02:35:46.008Z,95.64
2022-12-14T02:38:32.174Z,93.43
2022-12-14T02:41:12.341Z,92.34
2022-12-14T02:43:51.047Z,91.93
2022-12-14T02:46:29.699Z,91.83
2022-12-14T02:49:04.580Z,92.44
2022-12-14T02:51:43.769Z,92.14
2022-12-14T02:54:18.602Z,91.78
2022-12-14T02:56:51.274Z,91.25
2022-12-14T02:59:20.949Z,90.31
2022-12-14T03:01:52.465Z,90.06
2022-12-14T03:04:20.690Z,90.96
2022-12-14T03:06:59.039Z,91.09
2022-12-14T03:09:30.997Z,91.16
2022-12-14T03:12:04.024Z,90.98
2022-12-14T03:14:35.649Z,91.63
2022-12-14T03:17:15.161Z,91.38
2022-12-14T03:19:50.213Z,91.44
2022-12-14T03:22:21.845Z,91.58
2022-12-14T03:24:53.002Z,92.61
2022-12-14T03:27:25.288Z,92.51
2022-12-14T03:29:57.274Z,92.87
2022-12-14T03:32:31.004Z,91.63
2022-12-14T03:35:05.485Z,92.10
2022-12-14T03:37:39.606Z,90.58
2022-12-14T03:40:11.685Z,91.28
2022-12-14T03:42:44.824Z,90.14
2022-12-14T03:45:21.730Z,87.90
2022-12-14T03:48:02.333Z,86.99
2022-12-14T03:50:37.205Z,86.85
2022-12-14T03:53:10.151Z,87.61
2022-12-14T03:55:44.284Z,87.41
2022-12-14T03:58:31.350Z,86.58
2022-12-14T04:01:05.644Z,87.35
2022-12-14T04:03:42.096Z,86.84
2022-12-14T04:06:18.622Z,88.89
2022-12-14T04:08:51.610Z,89.47
2022-12-14T04:11:40.111Z,88.58
2022-12-14T04:14:30.814Z,89.56
2022-12-14T04:17:19.432Z,88.68
2022-12-14T04:19:53.337Z,89.40
2022-12-14T04:22:25.341Z,90.54
2022-12-14T04:25:17.118Z,89.87
2022-12-14T04:27:49.731Z,86.98
2022-12-14T04:30:17.294Z,86.99
2022-12-14T04:32:49.787Z,86.81
2022-12-14T04:35:25.038Z,89.08
2022-12-14T04:37:58.082Z,87.63
2022-12-14T04:40:31.866Z,87.62
2022-12-14T04:43:03.316Z,88.96
2022-12-14T04:45:36.341Z,87.90
2022-12-14T04:48:14.208Z,88.40
2022-12-14T04:50:49.082Z,91.10
2022-12-14T04:53:22.597Z,89.10
2022-12-14T04:55:55.664Z,87.95
2022-12-14T04:58:26.554Z,86.82
2022-12-14T05:01:13.868Z,86.54
2022-12-14T05:03:54.278Z,84.99
2022-12-14T05:06:31.794Z,85.23
2022-12-14T05:09:19.137Z,85.44
2022-12-14T05:11:54.090Z,87.69
2022-12-14T05:14:29.785Z,89.09
2022-12-14T05:17:02.286Z,88.37
2022-12-14T05:19:33.079Z,87.70
2022-12-14T05:22:07.338Z,87.53
2022-12-14T05:24:35.585Z,88.22
2022-12-14T05:27:03.544Z,91.60
2022-12-14T05:29:31.499Z,89.22
2022-12-14T05:31:59.592Z,88.82
2022-12-14T05:34:27.565Z,90.87
2022-12-14T05:36:55.756Z,89.49
2022-12-14T05:39:25.084Z,91.29
2022-12-14T05:41:53.458Z,89.91
2022-12-14T05:44:21.577Z,89.98
2022-12-14T05:46:49.497Z,90.16
2022-12-14T05:49:17.484Z,91.22
2022-12-14T05:51:45.397Z,90.91
2022-12-14T05:54:13.459Z,91.27
2022-12-14T05:56:42.752Z,91.98
2022-12-14T05:59:15.489Z,92.93
2022-12-14T06:01:44.228Z,92.50
2022-12-14T06:04:12.697Z,93.11
2022-12-14T06:06:40.670Z,91.62
2022-12-14T06:09:10.155Z,91.90
2022-12-14T06:11:39.367Z,92.69
2022-12-14T06:14:09.855Z,91.84
2022-12-14T06:16:42.612Z,92.06
2022-12-14T06:19:11.668Z,91.17
2022-12-14T06:21:42.502Z,91.30
2022-12-14T06:24:13.191Z,93.10
2022-12-14T06:26:42.060Z,94.03
2022-12-14T06:29:15.708Z,92.10
2022-12-14T06:31:43.642Z,92.80
2022-12-14T06:34:12.395Z,93.73
2022-12-14T06:36:42.789Z,94.11
2022-12-14T06:39:13.539Z,93.95
2022-12-14T06:41:41.628Z,94.48
2022-12-14T06:44:14.712Z,95.12
2022-12-14T06:46:43.242Z,93.06
2022-12-14T06:49:14.905Z,93.27
2022-12-14T06:51:43.240Z,92.25
2022-12-14T06:54:12.234Z,93.26
2022-12-14T06:56:40.784Z,94.37
2022-12-14T06:59:09.745Z,93.42
2022-12-14T07:01:40.430Z,93.21
2022-12-14T07:04:09.098Z,93.43
2022-12-14T07:06:40.730Z,92.29
2022-12-14T07:09:10.162Z,91.95
2022-12-14T07:11:38.082Z,90.61
2022-12-14T07:14:07.349Z,89.85
2022-12-14T07:16:37.073Z,90.08
2022-12-14T07:19:06.495Z,90.55
2022-12-14T07:21:34.649Z,90.45
2022-12-14T07:24:03.375Z,91.67
2022-12-14T07:26:31.477Z,92.00
2022-12-14T07:29:00.615Z,91.16
2022-12-14T07:31:30.024Z,91.99
2022-12-14T07:33:59.747Z,91.96
2022-12-14T07:36:30.512Z,93.88
2022-12-14T07:38:59.998Z,93.18
2022-12-14T07:41:30.739Z,92.69
2022-12-14T07:44:00.463Z,92.38
2022-12-14T07:46:30.047Z,92.62
2022-12-14T07:48:59.302Z,93.08
2022-12-14T07:51:30.611Z,94.91
2022-12-14T07:53:59.707Z,95.04
2022-12-14T07:56:30.823Z,94.67
2022-12-14T07:59:00.349Z,93.97
2022-12-14T08:01:30.589Z,94.50
2022-12-14T08:04:01.043Z,93.00
2022-12-14T08:06:30.945Z,94.16
2022-12-14T08:08:59.608Z,93.03
2022-12-14T08:11:27.918Z,93.11
2022-12-14T08:13:56.444Z,94.72
2022-12-14T08:16:25.083Z,93.28
2022-12-14T08:18:54.941Z,91.68
2022-12-14T08:21:24.280Z,91.30
2022-12-14T08:23:54.759Z,91.70
2022-12-14T08:26:23.777Z,93.19
2022-12-14T08:28:52.130Z,91.80
2022-12-14T08:31:22.044Z,91.01
2022-12-14T08:33:50.173Z,92.95
2022-12-14T08:36:20.115Z,92.46
2022-12-14T08:38:52.637Z,93.73
2022-12-14T08:41:22.123Z,93.77
2022-12-14T08:43:54.112Z,92.37
2022-12-14T08:46:23.375Z,90.51
2022-12-14T08:48:52.932Z,88.35
2022-12-14T08:51:21.698Z,89.61
2022-12-14T08:53:49.731Z,87.31
2022-12-14T08:56:19.535Z,86.83
2022-12-14T08:58:49.376Z,86.71
2022-12-14T09:01:19.889Z,87.36
2022-12-14T09:03:48.783Z,87.09
2022-12-14T09:06:18.701Z,86.65
2022-12-14T09:08:47.236Z,88.28
2022-12-14T09:11:19.825Z,85.40
2022-12-14T09:13:49.546Z,85.05
2022-12-14T09:16:20.076Z,86.52
2022-12-14T09:18:48.884Z,86.37
2022-12-14T09:21:18.095Z,86.25
2022-12-14T09:23:46.961Z,90.12
2022-12-14T09:26:17.592Z,90.40
2022-12-14T09:28:50.252Z,89.94
2022-12-14T09:31:20.434Z,91.30
2022-12-14T09:33:48.914Z,91.23
2022-12-14T09:36:19.019Z,92.05
2022-12-14T09:38:51.722Z,93.13
2022-12-14T09:41:31.612Z,92.90
2022-12-14T09:44:06.646Z,92.84
2022-12-14T09:46:46.209Z,93.20
2022-12-14T09:49:26.343Z,92.58
2022-12-14T09:51:56.251Z,94.72
2022-12-14T09:54:28.006Z,93.45
2022-12-14T09:56:59.086Z,92.73
2022-12-14T09:59:31.938Z,93.09
2022-12-14T10:02:33.105Z,92.21
2022-12-14T10:05:19.379Z,93.67
2022-12-14T10:07:59.385Z,92.08
2022-12-14T10:10:35.069Z,90.32
2022-12-14T10:13:12.086Z,89.78
2022-12-14T10:15:45.750Z,89.86
2022-12-14T10:21:40.536Z,90.25
2022-12-14T10:24:15.461Z,89.57
2022-12-14T10:26:47.553Z,89.18
2022-12-14T10:29:19.792Z,88.54
2022-12-14T10:31:57.146Z,89.04
2022-12-14T10:34:30.772Z,89.99
2022-12-14T10:37:10.652Z,91.06
2022-12-14T10:39:49.653Z,90.92
2022-12-14T10:42:25.128Z,90.07
2022-12-14T10:45:31.527Z,92.22
2022-12-14T10:47:57.094Z,91.57
2022-12-14T10:50:33.936Z,90.61
2022-12-14T10:53:05.904Z,91.69
2022-12-14T10:55:39.437Z,91.05
2022-12-14T10:58:07.372Z,91.81
2022-12-14T11:00:35.585Z,92.31
2022-12-14T11:03:13.664Z,90.33
2022-12-14T11:05:47.321Z,90.27
2022-12-14T11:08:39.704Z,91.19
2022-12-14T11:11:18.859Z,89.26
2022-12-14T11:13:52.842Z,90.16
2022-12-14T11:16:35.524Z,90.27
2022-12-14T11:19:16.120Z,90.91
2022-12-14T11:21:44.747Z,90.44
2022-12-14T11:24:23.389Z,91.74
2022-12-14T11:26:54.793Z,92.52
2022-12-14T11:29:30.172Z,91.66
2022-12-14T11:31:58.443Z,91.41
2022-12-14T11:34:34.608Z,91.14
2022-12-14T11:37:14.381Z,91.69
2022-12-14T11:39:43.532Z,90.21
2022-12-14T11:42:19.058Z,91.73
2022-12-14T11:44:48.324Z,91.35
2022-12-14T11:47:18.863Z,94.36
2022-12-14T11:49:50.472Z,92.71
2022-12-14T11:52:19.988Z,91.94
2022-12-14T11:55:03.855Z,93.72
2022-12-14T11:57:34.180Z,94.67
2022-12-14T12:00:05.720Z,94.91
2022-12-14T12:02:35.987Z,94.67
2022-12-14T12:05:08.821Z,95.13
2022-12-14T12:07:39.980Z,95.44
2022-12-14T12:10:18.153Z,95.15
2022-12-14T12:12:52.624Z,96.97
2022-12-14T12:15:25.861Z,98.05
2022-12-14T12:17:56.681Z,99.31
2022-12-14T12:20:32.125Z,98.17
2022-12-14T12:23:05.764Z,98.32
2022-12-14T12:25:37.665Z,98.23
2022-12-14T12:28:13.466Z,97.52
2022-12-14T12:30:45.617Z,97.05
2022-12-14T12:33:33.500Z,97.40
2022-12-14T12:36:06.145Z,97.13
2022-12-14T12:39:02.053Z,98.04
2022-12-14T12:41:35.035Z,99.39
2022-12-14T12:44:14.270Z,97.95
2022-12-14T12:47:22.701Z,98.61
2022-12-14T12:49:44.741Z,99.98
2022-12-14T12:52:22.102Z,98.69
2022-12-14T12:54:58.191Z,98.70
2022-12-14T12:57:31.304Z,99.07
2022-12-14T13:00:01.273Z,97.69
2022-12-14T13:02:33.386Z,97.91
2022-12-14T13:05:29.075Z,97.40
2022-12-14T13:07:58.561Z,98.68
2022-12-14T13:10:30.316Z,98.29
2022-12-14T13:13:02.325Z,99.56
2022-12-14T13:15:32.836Z,99.38
2022-12-14T13:18:04.868Z,100.00
2022-12-14T13:20:34.683Z,99.25
2022-12-14T13:26:23.465Z,99.50
2022-12-14T13:29:08.928Z,98.33
2022-12-14T13:31:44.578Z,98.64
2022-12-14T13:34:24.345Z,99.20
2022-12-14T13:37:30.583Z,99.14
2022-12-14T13:40:29.564Z,98.96
2022-12-14T13:43:11.277Z,98.24
2022-12-14T13:45:42.738Z,97.55
2022-12-14T13:48:23.156Z,97.86
2022-12-14T13:51:01.529Z,97.17
2022-12-14T13:53:36.391Z,97.06
2022-12-14T13:56:06.308Z,97.79
2022-12-14T13:58:39.473Z,98.71
2022-12-14T14:01:08.831Z,97.81
2022-12-14T14:03:52.257Z,97.90
2022-12-14T14:06:41.189Z,98.56
2022-12-14T14:09:46.677Z,99.04
2022-12-14T14:12:51.680Z,99.68
2022-12-14T14:15:33.259Z,99.30
2022-12-14T14:18:23.523Z,98.37
2022-12-14T14:21:32.331Z,98.83
2022-12-14T14:24:02.349Z,99.04
2022-12-14T14:26:32.181Z,98.76
2022-12-14T14:29:21.786Z,98.24
2022-12-14T14:31:52.982Z,97.93
2022-12-14T14:34:39.425Z,97.65
2022-12-14T14:37:26.700Z,98.85
2022-12-14T14:40:18.659Z,98.99
2022-12-14T14:42:55.026Z,98.47
2022-12-14T14:45:31.356Z,98.65
2022-12-14T14:48:02.197Z,98.38
2022-12-14T14:50:32.889Z,97.95
2022-12-14T14:53:11.154Z,98.04
2022-12-14T14:55:59.481Z,97.87
2022-12-14T14:58:30.514Z,97.78
2022-12-14T15:01:13.831Z,98.11
2022-12-14T15:03:49.730Z,99.15
2022-12-14T15:06:19.661Z,99.52
2022-12-14T15:08:50.610Z,99.56
2022-12-14T15:11:20.901Z,99.59
2022-12-14T15:13:54.531Z,100.00
2022-12-14T15:16:32.616Z,99.97
2022-12-14T15:19:27.958Z,100.00
2022-12-14T15:21:58.843Z,99.98
2022-12-14T15:24:27.624Z,99.76
2022-12-14T15:26:55.761Z,100.00
2022-12-14T15:29:28.465Z,99.97
2022-12-14T15:32:00.735Z,100.00
2022-12-14T15:34:29.139Z,100.00
2022-12-14T15:36:57.721Z,100.00
2022-12-14T15:39:37.299Z,100.00
2022-12-14T15:42:16.899Z,100.00
2022-12-14T15:44:52.534Z,100.00
2022-12-14T15:47:27.262Z,100.00
2022-12-14T15:50:00.526Z,100.00
2022-12-14T15:52:31.546Z,100.00
2022-12-14T15:55:00.773Z,100.00
2022-12-14T15:57:28.850Z,99.89
2022-12-14T15:59:59.207Z,99.78
2022-12-14T16:02:32.213Z,99.97
2022-12-14T16:05:03.483Z,100.00
2022-12-14T16:07:38.620Z,100.00
2022-12-14T16:10:17.457Z,100.00
2022-12-14T16:12:47.941Z,100.00
2022-12-14T16:15:20.688Z,100.00
2022-12-14T16:17:59.067Z,100.00
2022-12-14T16:20:31.927Z,99.30
2022-12-14T16:23:06.152Z,98.80
2022-12-14T16:25:35.880Z,98.55
2022-12-14T16:28:28.097Z,99.20
2022-12-14T16:31:00.582Z,98.90
2022-12-14T16:33:31.078Z,98.79
2022-12-14T16:36:02.530Z,99.32
2022-12-14T16:38:30.979Z,99.53
2022-12-14T16:41:01.113Z,99.91
2022-12-14T16:43:33.867Z,100.00
2022-12-14T16:46:19.790Z,100.00
2022-12-14T16:49:21.503Z,99.79
2022-12-14T16:52:07.435Z,100.00
2022-12-14T16:54:37.815Z,100.00
2022-12-14T16:57:09.328Z,100.00
2022-12-14T16:59:43.426Z,100.00
2022-12-14T17:02:29.015Z,100.00
2022-12-14T17:05:01.589Z,100.00
2022-12-14T17:07:32.041Z,100.00
2022-12-14T17:10:00.031Z,100.00
2022-12-14T17:12:28.250Z,100.00
2022-12-14T17:14:56.349Z,100.00
2022-12-14T17:17:32.254Z,100.00
2022-12-14T17:20:02.767Z,100.00
2022-12-14T17:22:32.788Z,100.00
2022-12-14T17:25:02.672Z,100.00
2022-12-14T17:27:30.874Z,100.00
2022-12-14T17:29:58.849Z,100.00
2022-12-14T17:32:30.481Z,100.00
2022-12-14T17:34:59.061Z,100.00
2022-12-14T17:37:35.658Z,100.00
2022-12-14T17:40:05.485Z,100.00
2022-12-14T17:42:33.536Z,100.00
2022-12-14T17:45:01.774Z,100.00
2022-12-14T17:47:29.870Z,100.00
2022-12-14T17:49:57.872Z,100.00
2022-12-14T17:52:31.924Z,100.00
2022-12-14T17:55:00.422Z,100.00
2022-12-14T17:57:28.606Z,100.00
2022-12-14T18:00:10.421Z,100.00
2022-12-14T18:02:40.005Z,100.00
2022-12-14T18:05:13.089Z,100.00
2022-12-14T18:07:42.411Z,100.00
2022-12-14T18:10:14.238Z,100.00
2022-12-14T18:12:42.594Z,100.00
2022-12-14T18:15:18.161Z,100.00
2022-12-14T18:17:46.095Z,100.00
2022-12-14T18:20:17.701Z,100.00
2022-12-14T18:22:49.666Z,100.00
2022-12-14T18:25:30.146Z,100.00
2022-12-14T18:27:58.088Z,100.00
2022-12-14T18:30:26.756Z,100.00
2022-12-14T18:32:55.923Z,100.00
2022-12-14T18:35:26.142Z,100.00
2022-12-14T18:37:55.490Z,100.00
2022-12-14T18:40:26.160Z,100.00
2022-12-14T18:42:54.477Z,100.00
2022-12-14T18:45:24.157Z,100.00
2022-12-14T18:47:54.091Z,100.00
2022-12-14T18:50:23.246Z,100.00
2022-12-14T18:52:51.475Z,100.00
2022-12-14T18:55:23.191Z,100.00
2022-12-14T18:57:53.019Z,99.94
2022-12-14T19:00:23.506Z,99.36
2022-12-14T19:02:52.517Z,100.00
2022-12-14T19:05:25.909Z,100.00
2022-12-14T19:07:54.593Z,100.00
2022-12-14T19:10:25.767Z,100.00
2022-12-14T19:12:53.947Z,100.00
2022-12-14T19:15:24.238Z,100.00
2022-12-14T19:17:52.506Z,100.00
2022-12-14T19:20:21.325Z,100.00
2022-12-14T19:22:49.911Z,100.00
2022-12-14T19:25:18.870Z,100.00
2022-12-14T19:30:37.609Z,99.15
2022-12-14T19:33:05.674Z,99.33
2022-12-14T19:35:33.634Z,98.97
2022-12-14T19:38:01.729Z,99.00
2022-12-14T19:40:29.666Z,98.73
2022-12-14T19:42:59.445Z,98.14
2022-12-14T19:45:27.360Z,98.35
2022-12-14T19:47:56.082Z,98.17
2022-12-14T19:50:24.034Z,98.09
2022-12-14T19:52:52.628Z,98.39
2022-12-14T19:55:20.561Z,98.54
2022-12-14T19:57:48.514Z,98.48
2022-12-14T20:00:18.265Z,99.20
2022-12-14T20:02:46.345Z,98.37
2022-12-14T20:05:18.134Z,97.22
2022-12-14T20:07:46.047Z,97.79
2022-12-14T20:10:14.005Z,97.06
2022-12-14T20:12:41.952Z,97.98
2022-12-14T20:15:10.222Z,97.39
2022-12-14T20:17:39.528Z,99.65
2022-12-14T20:20:08.568Z,99.38
2022-12-14T20:22:36.811Z,100.00
2022-12-14T20:25:04.979Z,99.46
2022-12-14T20:27:38.845Z,99.57
2022-12-14T20:30:10.098Z,99.65
2022-12-14T20:32:41.198Z,100.00
2022-12-14T20:35:10.997Z,99.25
2022-12-14T20:37:38.984Z,100.00
2022-12-14T20:40:08.256Z,100.00
2022-12-14T20:42:36.224Z,100.00
2022-12-14T20:45:07.248Z,100.00
2022-12-14T20:47:35.775Z,100.00
2022-12-14T20:50:05.808Z,100.00
2022-12-14T20:52:33.737Z,100.00
2022-12-14T20:55:01.662Z,100.00
2022-12-14T20:57:33.144Z,100.00
2022-12-14T21:00:01.195Z,100.00
2022-12-14T21:02:29.343Z,100.00
2022-12-14T21:04:57.604Z,100.00
2022-12-14T21:07:27.317Z,100.00
2022-12-14T21:09:55.220Z,100.00
2022-12-14T21:12:22.168Z,100.00
2022-12-14T21:14:53.304Z,100.00
2022-12-14T21:17:22.517Z,100.00
2022-12-14T21:19:50.490Z,100.00
2022-12-14T21:22:20.274Z,99.39
2022-12-14T21:25:06.655Z,99.40
2022-12-14T21:27:38.412Z,100.00
2022-12-14T21:30:08.644Z,99.63
2022-12-14T21:32:37.753Z,98.95
2022-12-14T21:35:06.632Z,98.66
2022-12-14T21:37:34.643Z,97.23
2022-12-14T21:40:04.037Z,97.17
2022-12-14T21:42:30.990Z,97.09
2022-12-14T21:44:58.921Z,97.24
2022-12-14T21:47:28.947Z,96.74
2022-12-14T21:49:57.211Z,97.42
2022-12-14T21:52:26.952Z,97.03
2022-12-14T21:54:55.105Z,97.47
2022-12-14T21:57:42.972Z,98.17
2022-12-14T22:00:17.868Z,97.59
2022-12-14T22:02:45.987Z,99.04
2022-12-14T22:05:14.274Z,98.08
2022-12-14T22:07:42.291Z,98.38
2022-12-14T22:10:10.293Z,98.47
2022-12-14T22:12:39.585Z,98.62
2022-12-14T22:15:08.525Z,98.48
2022-12-14T22:17:38.796Z,98.83
2022-12-14T22:20:07.713Z,98.75
2022-12-14T22:22:35.672Z,97.50
2022-12-14T22:25:03.907Z,97.03
2022-12-14T22:27:31.853Z,96.39
2022-12-14T22:30:01.143Z,96.79
2022-12-14T22:32:29.045Z,96.58
2022-12-14T22:34:56.961Z,96.34
2022-12-14T22:37:24.891Z,96.66
2022-12-14T22:39:52.829Z,96.98
2022-12-14T22:42:20.760Z,97.43
2022-12-14T22:44:49.751Z,98.34
2022-12-14T22:47:19.080Z,97.21
2022-12-14T22:49:47.205Z,98.19
2022-12-14T22:52:17.514Z,98.60
2022-12-14T22:54:49.898Z,98.59
2022-12-14T22:57:20.300Z,99.99
2022-12-14T22:59:53.953Z,100.00
2022-12-14T23:02:24.209Z,100.00
2022-12-14T23:04:52.280Z,99.58
2022-12-14T23:07:20.188Z,99.36
2022-12-14T23:10:05.640Z,99.44
2022-12-14T23:12:51.052Z,99.46
2022-12-14T23:15:36.179Z,99.50
2022-12-14T23:18:25.303Z,100.00
2022-12-14T23:21:10.559Z,100.00
2022-12-14T23:23:57.064Z,99.32
2022-12-14T23:26:42.579Z,99.24
2022-12-14T23:29:28.091Z,98.96
2022-12-14T23:32:13.552Z,99.01
2022-12-14T23:35:00.443Z,99.29
2022-12-14T23:37:45.539Z,99.26
2022-12-14T23:40:31.153Z,99.99
2022-12-14T23:43:16.598Z,100.00
2022-12-14T23:46:02.150Z,100.00
2022-12-14T23:48:47.557Z,100.00
2022-12-14T23:51:34.383Z,100.00
2022-12-14T23:54:19.989Z,100.00
2022-12-14T23:57:05.320Z,100.00
2022-12-14T23:59:50.863Z,100.00
